Time;durP1;ratioP1;P1;durP2;ratioP2;P2;SDS_P1;SDS_P2;PMS_P1;PMS_P2;Temp;Humidity;BMP_temperature;BMP_pressure;BME280_temperature;BME280_humidity;BME280_pressure;Samples;Min_cycle;Max_cycle;Signal;HPM_P1;HPM_P2
2021/07/22 00:01:49;;;;;;;5.90;5.40;;;;;;;;;;5075793;28;24509;-54
2021/07/22 00:04:15;;;;;;;6.20;5.60;;;;;;;;;;5080707;28;25008;-54
2021/07/22 00:06:40;;;;;;;6.50;6.00;;;;;;;;;;5087036;28;24403;-54
2021/07/22 00:09:05;;;;;;;6.60;6.00;;;;;;;;;;5077028;28;24418;-55
2021/07/22 00:11:30;;;;;;;6.13;5.63;;;;;;;;;;5092365;28;24417;-53
2021/07/22 00:13:56;;;;;;;6.50;5.90;;;;;;;;;;5090972;28;24481;-53
2021/07/22 00:16:21;;;;;;;6.40;5.90;;;;;;;;;;5098601;28;24567;-54
2021/07/22 00:18:46;;;;;;;6.87;6.27;;;;;;;;;;5083079;28;24514;-55
2021/07/22 00:21:11;;;;;;;6.20;5.70;;;;;;;;;;5079350;28;24499;-54
2021/07/22 00:23:36;;;;;;;6.20;5.70;;;;;;;;;;5070753;28;24414;-55
2021/07/22 00:26:02;;;;;;;6.53;6.03;;;;;;;;;;5082934;28;24452;-54
2021/07/22 00:28:27;;;;;;;6.10;5.60;;;;;;;;;;5088692;28;24421;-54
2021/07/22 00:30:52;;;;;;;6.50;5.90;;;;;;;;;;5069824;28;24968;-54
2021/07/22 00:33:18;;;;;;;6.20;5.70;;;;;;;;;;5080640;28;24497;-54
2021/07/22 00:35:43;;;;;;;6.30;5.70;;;;;;;;;;5079054;28;24782;-54
2021/07/22 00:38:08;;;;;;;6.73;6.23;;;;;;;;;;5084573;28;25179;-55
2021/07/22 00:40:33;;;;;;;6.40;5.90;;;;;;;;;;5096227;28;24422;-54
2021/07/22 00:42:58;;;;;;;6.65;6.15;;;;;;;;;;5084198;28;24422;-54
2021/07/22 00:45:24;;;;;;;5.80;5.30;;;;;;;;;;5077974;28;24976;-54
2021/07/22 00:47:49;;;;;;;7.37;6.67;;;;;;;;;;5077073;28;24527;-55
2021/07/22 00:50:14;;;;;;;6.20;5.70;;;;;;;;;;5079330;28;24447;-54
2021/07/22 00:52:39;;;;;;;7.40;6.70;;;;;;;;;;5080877;27;24422;-55
2021/07/22 00:55:05;;;;;;;6.72;6.13;;;;;;;;;;5073658;28;24823;-54
2021/07/22 00:57:30;;;;;;;6.77;6.17;;;;;;;;;;5069200;28;24486;-55
2021/07/22 00:59:55;;;;;;;7.15;6.55;;;;;;;;;;5087301;28;24403;-55
2021/07/22 01:02:20;;;;;;;7.53;6.90;;;;;;;;;;5084232;28;25110;-54
2021/07/22 01:04:45;;;;;;;7.40;6.80;;;;;;;;;;5070862;28;24891;-53
2021/07/22 01:07:11;;;;;;;7.90;7.20;;;;;;;;;;5085360;28;25049;-53
2021/07/22 01:09:36;;;;;;;7.00;6.40;;;;;;;;;;5089696;28;24500;-54
2021/07/22 01:12:01;;;;;;;7.43;6.82;;;;;;;;;;5087776;28;24460;-54
2021/07/22 01:14:26;;;;;;;8.60;7.60;;;;;;;;;;5088182;28;24422;-54
2021/07/22 01:16:51;;;;;;;8.07;7.37;;;;;;;;;;5083170;28;26367;-54
2021/07/22 01:19:16;;;;;;;7.50;6.90;;;;;;;;;;5079738;28;24483;-54
2021/07/22 01:21:42;;;;;;;7.60;6.90;;;;;;;;;;5084572;28;24513;-53
2021/07/22 01:24:07;;;;;;;7.27;6.67;;;;;;;;;;5087530;28;24761;-54
2021/07/22 01:26:32;;;;;;;7.53;6.82;;;;;;;;;;5079038;28;24970;-54
2021/07/22 01:28:57;;;;;;;6.60;6.10;;;;;;;;;;5079770;28;24445;-53
2021/07/22 01:31:23;;;;;;;7.53;6.93;;;;;;;;;;5079226;28;24426;-54
2021/07/22 01:33:49;;;;;;;7.18;6.57;;;;;;;;;;5085354;28;24425;-53
2021/07/22 01:36:15;;;;;;;6.80;6.20;;;;;;;;;;5079577;28;24417;-54
2021/07/22 01:38:40;;;;;;;6.50;6.00;;;;;;;;;;5086729;28;24760;-55
2021/07/22 01:41:06;;;;;;;6.18;5.68;;;;;;;;;;5075207;28;24480;-54
2021/07/22 01:43:31;;;;;;;6.30;5.70;;;;;;;;;;5095362;28;24420;-53
2021/07/22 01:45:56;;;;;;;6.60;6.00;;;;;;;;;;5080637;28;24419;-54
2021/07/22 01:48:21;;;;;;;7.70;7.00;;;;;;;;;;5094363;28;24421;-54
2021/07/22 01:50:46;;;;;;;6.85;6.35;;;;;;;;;;5086286;28;24411;-54
2021/07/22 01:53:11;;;;;;;6.53;6.00;;;;;;;;;;5084557;28;24476;-54
2021/07/22 01:55:37;;;;;;;6.63;6.03;;;;;;;;;;5078443;28;24978;-54
2021/07/22 01:58:02;;;;;;;7.13;6.43;;;;;;;;;;5079432;28;24500;-54
2021/07/22 02:00:27;;;;;;;6.75;6.15;;;;;;;;;;5078323;28;25058;-55
2021/07/22 02:02:52;;;;;;;7.00;6.30;;;;;;;;;;5067341;28;24445;-55
2021/07/22 02:05:18;;;;;;;7.05;6.50;;;;;;;;;;5069646;28;24471;-55
2021/07/22 02:07:43;;;;;;;6.73;6.23;;;;;;;;;;5089587;28;25185;-54
2021/07/22 02:10:08;;;;;;;7.25;6.55;;;;;;;;;;5074537;28;24406;-54
2021/07/22 02:12:33;;;;;;;7.35;6.75;;;;;;;;;;5093413;28;25077;-55
2021/07/22 02:14:58;;;;;;;6.30;5.70;;;;;;;;;;5096834;27;24799;-55
2021/07/22 02:17:23;;;;;;;6.72;6.13;;;;;;;;;;5071521;28;24450;-55
2021/07/22 02:19:49;;;;;;;6.80;6.20;;;;;;;;;;5079360;28;24411;-55
2021/07/22 02:22:15;;;;;;;6.93;6.33;;;;;;;;;;5087174;28;24811;-55
2021/07/22 02:24:40;;;;;;;7.10;6.50;;;;;;;;;;5082542;28;24414;-55
2021/07/22 02:27:05;;;;;;;7.20;6.60;;;;;;;;;;5069078;28;24439;-55
2021/07/22 02:29:30;;;;;;;6.97;6.28;;;;;;;;;;5072983;28;24423;-55
2021/07/22 02:31:56;;;;;;;6.87;6.37;;;;;;;;;;5081141;28;24839;-55
2021/07/22 02:34:21;;;;;;;7.53;6.83;;;;;;;;;;5075740;28;24428;-55
2021/07/22 02:36:46;;;;;;;7.47;6.82;;;;;;;;;;5072120;28;24414;-54
2021/07/22 02:39:11;;;;;;;6.00;5.50;;;;;;;;;;5082713;28;24493;-53
2021/07/22 02:41:36;;;;;;;6.78;6.18;;;;;;;;;;5073948;28;24480;-53
2021/07/22 02:44:01;;;;;;;6.90;6.30;;;;;;;;;;5078925;28;24663;-53
2021/07/22 02:46:27;;;;;;;6.10;5.60;;;;;;;;;;5095674;28;24425;-53
2021/07/22 02:48:55;;;;;;;6.80;6.30;;;;;;;;;;5085630;28;24510;-54
2021/07/22 02:51:20;;;;;;;6.00;5.50;;;;;;;;;;5080467;28;24421;-53
2021/07/22 02:53:45;;;;;;;6.38;5.88;;;;;;;;;;5069313;28;24410;-53
2021/07/22 02:56:10;;;;;;;6.32;5.72;;;;;;;;;;5085626;28;24753;-54
2021/07/22 02:58:36;;;;;;;6.10;5.60;;;;;;;;;;5074928;28;24472;-54
2021/07/22 03:01:01;;;;;;;5.80;5.30;;;;;;;;;;5082647;28;24517;-53
2021/07/22 03:03:26;;;;;;;6.23;5.73;;;;;;;;;;5085013;28;24444;-53
2021/07/22 03:05:51;;;;;;;6.27;5.77;;;;;;;;;;5081075;28;24415;-53
2021/07/22 03:08:17;;;;;;;6.37;5.87;;;;;;;;;;5078958;28;24410;-54
2021/07/22 03:10:42;;;;;;;6.22;5.72;;;;;;;;;;5071917;28;24441;-54
2021/07/22 03:13:07;;;;;;;7.07;6.37;;;;;;;;;;5074723;28;24426;-53
2021/07/22 03:15:32;;;;;;;6.53;6.00;;;;;;;;;;5084320;28;24538;-54
2021/07/22 03:17:57;;;;;;;8.77;6.20;;;;;;;;;;5086228;28;24469;-53
2021/07/22 03:20:23;;;;;;;6.63;6.03;;;;;;;;;;5067662;28;24766;-53
2021/07/22 03:22:48;;;;;;;6.13;5.63;;;;;;;;;;5080136;28;24463;-52
2021/07/22 03:25:13;;;;;;;7.50;6.40;;;;;;;;;;5096745;28;24480;-53
2021/07/22 03:27:38;;;;;;;6.20;5.70;;;;;;;;;;5074887;28;24464;-53
2021/07/22 03:30:04;;;;;;;6.80;6.20;;;;;;;;;;5083112;28;24494;-52
2021/07/22 03:32:29;;;;;;;6.50;6.00;;;;;;;;;;5068429;28;24958;-53
2021/07/22 03:34:54;;;;;;;6.70;5.70;;;;;;;;;;5087642;28;24506;-53
2021/07/22 03:37:19;;;;;;;6.30;5.80;;;;;;;;;;5085276;28;24471;-53
2021/07/22 03:39:45;;;;;;;6.47;5.97;;;;;;;;;;5078275;28;24497;-53
2021/07/22 03:42:10;;;;;;;5.80;5.30;;;;;;;;;;5086987;28;24867;-53
2021/07/22 03:44:35;;;;;;;5.93;5.43;;;;;;;;;;5087763;28;24420;-53
2021/07/22 03:47:00;;;;;;;6.63;5.93;;;;;;;;;;5081373;28;24417;-58
2021/07/22 03:49:25;;;;;;;5.53;5.10;;;;;;;;;;5086005;28;25133;-53
2021/07/22 03:51:54;;;;;;;6.15;5.55;;;;;;;;;;5078743;28;24477;-53
2021/07/22 03:54:20;;;;;;;6.05;5.55;;;;;;;;;;5070033;28;24776;-53
2021/07/22 03:56:45;;;;;;;5.90;5.40;;;;;;;;;;5084035;28;24440;-53
2021/07/22 03:59:10;;;;;;;6.80;6.18;;;;;;;;;;5069780;28;24576;-53
2021/07/22 04:01:35;;;;;;;6.07;5.57;;;;;;;;;;5075504;28;25096;-53
2021/07/22 04:04:00;;;;;;;5.60;5.05;;;;;;;;;;5069090;28;24419;-54
2021/07/22 04:06:26;;;;;;;5.90;5.40;;;;;;;;;;5094090;28;24468;-53
2021/07/22 04:08:51;;;;;;;5.88;5.38;;;;;;;;;;5077587;28;24543;-53
2021/07/22 04:11:16;;;;;;;6.10;5.50;;;;;;;;;;5089376;28;24411;-54
2021/07/22 04:13:41;;;;;;;6.25;5.70;;;;;;;;;;5081986;28;25000;-53
2021/07/22 04:16:06;;;;;;;6.30;5.80;;;;;;;;;;5083873;28;24974;-53
2021/07/22 04:18:31;;;;;;;6.57;5.97;;;;;;;;;;5086102;28;24445;-53
2021/07/22 04:20:57;;;;;;;5.93;5.43;;;;;;;;;;5089675;28;24421;-53
2021/07/22 04:23:22;;;;;;;6.30;5.70;;;;;;;;;;5099865;28;24428;-54
2021/07/22 04:25:50;;;;;;;5.22;4.82;;;;;;;;;;5078422;28;24803;-53
2021/07/22 04:28:15;;;;;;;5.90;5.40;;;;;;;;;;5078475;28;24410;-53
2021/07/22 04:30:40;;;;;;;5.90;5.40;;;;;;;;;;5078712;28;24823;-53
2021/07/22 04:33:06;;;;;;;5.60;5.10;;;;;;;;;;5086950;28;24419;-53
2021/07/22 04:35:31;;;;;;;5.15;4.75;;;;;;;;;;5074439;28;24449;-53
2021/07/22 04:37:56;;;;;;;6.20;5.70;;;;;;;;;;5086150;28;24402;-53
2021/07/22 04:40:21;;;;;;;5.50;5.00;;;;;;;;;;5097081;28;24410;-54
2021/07/22 04:42:47;;;;;;;6.17;5.67;;;;;;;;;;5101151;27;24441;-54
2021/07/22 04:45:13;;;;;;;5.28;4.88;;;;;;;;;;5087738;28;24417;-54
2021/07/22 04:47:38;;;;;;;6.90;6.30;;;;;;;;;;5087257;28;24441;-54
2021/07/22 04:50:03;;;;;;;5.50;5.00;;;;;;;;;;5102145;28;24448;-54
2021/07/22 04:52:28;;;;;;;5.40;5.00;;;;;;;;;;5088811;28;24413;-54
2021/07/22 04:54:53;;;;;;;5.93;5.33;;;;;;;;;;5099365;28;24508;-54
2021/07/22 04:57:19;;;;;;;5.80;5.40;;;;;;;;;;5096345;28;24418;-54
2021/07/22 04:59:44;;;;;;;5.55;5.15;;;;;;;;;;5093069;27;24974;-54
2021/07/22 05:02:09;;;;;;;5.60;5.10;;;;;;;;;;5097781;28;24520;-54
2021/07/22 05:04:34;;;;;;;6.93;6.00;;;;;;;;;;5094958;28;24418;-54
2021/07/22 05:06:59;;;;;;;5.20;4.80;;;;;;;;;;5094199;28;24417;-54
2021/07/22 05:09:24;;;;;;;5.00;4.60;;;;;;;;;;5087463;28;24447;-54
2021/07/22 05:11:50;;;;;;;5.90;5.40;;;;;;;;;;5091029;28;24508;-53
2021/07/22 05:14:15;;;;;;;5.15;4.75;;;;;;;;;;5093703;28;24878;-52
2021/07/22 05:16:40;;;;;;;5.97;5.47;;;;;;;;;;5099498;28;24508;-53
2021/07/22 05:19:05;;;;;;;6.38;5.78;;;;;;;;;;5094946;28;24441;-53
2021/07/22 05:21:30;;;;;;;6.60;6.00;;;;;;;;;;5105814;28;24437;-52
2021/07/22 05:23:55;;;;;;;6.17;5.57;;;;;;;;;;5089711;28;24399;-53
2021/07/22 05:26:20;;;;;;;5.60;5.00;;;;;;;;;;5089138;28;24838;-53
2021/07/22 05:28:46;;;;;;;6.13;5.55;;;;;;;;;;5084572;28;24443;-53
2021/07/22 05:31:11;;;;;;;5.13;4.72;;;;;;;;;;5068748;28;24402;-53
2021/07/22 05:33:38;;;;;;;5.40;4.93;;;;;;;;;;5068288;28;24987;-53
2021/07/22 05:36:04;;;;;;;6.30;5.67;;;;;;;;;;5068742;28;24393;-54
2021/07/22 05:38:29;;;;;;;5.68;5.28;;;;;;;;;;5067969;28;24406;-54
2021/07/22 05:40:54;;;;;;;6.10;5.60;;;;;;;;;;5083042;28;24476;-54
2021/07/22 05:43:20;;;;;;;5.30;4.80;;;;;;;;;;5088121;28;24390;-54
2021/07/22 05:45:45;;;;;;;5.97;5.38;;;;;;;;;;5088415;28;24456;-54
2021/07/22 05:48:10;;;;;;;6.67;5.97;;;;;;;;;;5088515;28;24390;-54
2021/07/22 05:50:35;;;;;;;6.80;6.10;;;;;;;;;;5086913;28;24414;-54
2021/07/22 05:53:00;;;;;;;5.70;5.28;;;;;;;;;;5088507;28;24406;-54
2021/07/22 05:55:27;;;;;;;6.40;5.82;;;;;;;;;;5088296;28;24396;-54
2021/07/22 05:57:52;;;;;;;5.95;5.45;;;;;;;;;;5089327;28;24441;-54
2021/07/22 06:00:17;;;;;;;5.68;5.18;;;;;;;;;;5096817;28;24469;-55
2021/07/22 06:02:42;;;;;;;5.10;4.70;;;;;;;;;;5085177;28;24434;-54
2021/07/22 06:05:08;;;;;;;6.40;5.80;;;;;;;;;;5085624;28;24494;-54
2021/07/22 06:07:33;;;;;;;5.90;5.40;;;;;;;;;;5087159;28;24475;-54
2021/07/22 06:09:58;;;;;;;6.65;5.68;;;;;;;;;;5087064;28;24406;-54
2021/07/22 06:12:23;;;;;;;5.90;5.30;;;;;;;;;;5087896;28;24470;-55
2021/07/22 06:14:48;;;;;;;6.30;5.70;;;;;;;;;;5088237;28;25114;-54
2021/07/22 06:17:13;;;;;;;7.55;6.38;;;;;;;;;;5085146;28;24405;-54
2021/07/22 06:19:39;;;;;;;5.63;5.13;;;;;;;;;;5084050;28;24498;-54
2021/07/22 06:22:04;;;;;;;6.78;5.68;;;;;;;;;;5085417;28;25057;-54
2021/07/22 06:24:29;;;;;;;5.70;5.20;;;;;;;;;;5084311;28;24453;-54
2021/07/22 06:26:54;;;;;;;5.60;5.10;;;;;;;;;;5088791;28;24931;-54
2021/07/22 06:29:19;;;;;;;6.20;5.70;;;;;;;;;;5095758;28;24414;-54
2021/07/22 06:31:45;;;;;;;6.30;5.37;;;;;;;;;;5064768;28;25007;-54
2021/07/22 06:34:10;;;;;;;6.03;5.53;;;;;;;;;;5063784;28;24699;-54
2021/07/22 06:36:35;;;;;;;5.50;5.00;;;;;;;;;;5088103;28;24422;-54
2021/07/22 06:39:00;;;;;;;6.30;5.70;;;;;;;;;;5092880;28;24462;-54
2021/07/22 06:41:25;;;;;;;5.40;5.00;;;;;;;;;;5087847;28;24429;-55
2021/07/22 06:43:50;;;;;;;5.53;5.03;;;;;;;;;;5084395;28;24505;-54
2021/07/22 06:46:15;;;;;;;6.53;5.93;;;;;;;;;;5098042;28;24457;-54
2021/07/22 06:48:41;;;;;;;6.65;5.95;;;;;;;;;;5104895;28;24943;-54
2021/07/22 06:51:07;;;;;;;6.17;5.57;;;;;;;;;;5085427;28;24460;-54
2021/07/22 06:53:32;;;;;;;7.35;6.65;;;;;;;;;;5077258;28;24456;-55
2021/07/22 06:55:58;;;;;;;6.10;5.50;;;;;;;;;;5094834;28;24442;-55
2021/07/22 06:58:23;;;;;;;6.60;5.80;;;;;;;;;;5084476;28;24386;-55
2021/07/22 07:00:49;;;;;;;6.00;5.40;;;;;;;;;;5084552;28;24434;-55
2021/07/22 07:03:14;;;;;;;5.72;5.22;;;;;;;;;;5096395;28;25002;-55
2021/07/22 07:05:39;;;;;;;5.80;5.30;;;;;;;;;;5102594;28;24413;-54
2021/07/22 07:08:04;;;;;;;5.70;5.10;;;;;;;;;;5103783;28;24414;-54
2021/07/22 07:10:29;;;;;;;5.73;5.23;;;;;;;;;;5088026;28;25322;-54
2021/07/22 07:12:57;;;;;;;5.47;4.97;;;;;;;;;;5092168;28;25039;-54
2021/07/22 07:15:22;;;;;;;6.20;5.60;;;;;;;;;;5106486;28;24413;-54
2021/07/22 07:17:48;;;;;;;6.20;5.70;;;;;;;;;;5089314;28;24434;-54
2021/07/22 07:20:13;;;;;;;5.80;5.30;;;;;;;;;;5106125;28;24390;-54
2021/07/22 07:22:38;;;;;;;6.70;6.00;;;;;;;;;;5095616;28;24434;-54
2021/07/22 07:25:04;;;;;;;6.80;6.20;;;;;;;;;;5097774;28;24421;-54
2021/07/22 07:27:29;;;;;;;6.90;6.30;;;;;;;;;;5107681;28;24999;-54
2021/07/22 07:29:54;;;;;;;6.85;5.90;;;;;;;;;;5094994;28;24409;-54
2021/07/22 07:32:19;;;;;;;6.45;5.95;;;;;;;;;;5089147;28;24418;-54
2021/07/22 07:34:44;;;;;;;6.88;6.38;;;;;;;;;;5082229;28;24426;-54
2021/07/22 07:37:09;;;;;;;6.50;6.00;;;;;;;;;;5087588;28;24925;-54
2021/07/22 07:39:35;;;;;;;7.20;6.50;;;;;;;;;;5088405;28;24422;-54
2021/07/22 07:42:01;;;;;;;7.10;6.50;;;;;;;;;;5091278;28;24418;-54
2021/07/22 07:44:26;;;;;;;5.80;5.40;;;;;;;;;;5088468;28;24421;-54
2021/07/22 07:46:51;;;;;;;7.30;6.70;;;;;;;;;;5091743;28;24394;-53
2021/07/22 07:49:16;;;;;;;6.85;6.15;;;;;;;;;;5089126;28;24448;-54
2021/07/22 07:51:41;;;;;;;5.75;5.25;;;;;;;;;;5083794;28;24405;-54
2021/07/22 07:54:07;;;;;;;7.53;6.80;;;;;;;;;;5089038;28;24414;-54
2021/07/22 07:56:32;;;;;;;6.30;5.80;;;;;;;;;;5105307;28;25055;-53
2021/07/22 07:58:57;;;;;;;7.20;6.60;;;;;;;;;;5110725;27;24849;-54
2021/07/22 08:01:25;;;;;;;6.30;5.80;;;;;;;;;;5110880;28;24810;-54
2021/07/22 08:03:51;;;;;;;6.90;6.30;;;;;;;;;;5111233;27;24398;-54
2021/07/22 08:06:16;;;;;;;7.03;6.43;;;;;;;;;;5091794;28;24475;-54
2021/07/22 08:08:42;;;;;;;5.50;5.10;;;;;;;;;;5090208;28;24821;-54
2021/07/22 08:11:07;;;;;;;7.60;7.00;;;;;;;;;;5090832;28;24404;-55
2021/07/22 08:13:32;;;;;;;6.80;5.72;;;;;;;;;;5089867;28;24485;-55
2021/07/22 08:15:57;;;;;;;6.87;6.27;;;;;;;;;;5070432;28;24422;-54
2021/07/22 08:18:22;;;;;;;6.67;6.07;;;;;;;;;;5069733;28;24430;-54
2021/07/22 08:20:48;;;;;;;7.60;6.80;;;;;;;;;;5070247;28;24418;-53
2021/07/22 08:23:13;;;;;;;7.10;6.60;;;;;;;;;;5069671;28;24399;-54
2021/07/22 08:25:38;;;;;;;7.00;6.40;;;;;;;;;;5081690;28;25064;-54
2021/07/22 08:28:04;;;;;;;6.90;6.30;;;;;;;;;;5089792;28;24382;-55
2021/07/22 08:30:29;;;;;;;8.97;8.07;;;;;;;;;;5090068;28;24536;-54
2021/07/22 08:32:54;;;;;;;8.00;7.30;;;;;;;;;;5089654;28;24405;-54
2021/07/22 08:35:19;;;;;;;7.50;6.90;;;;;;;;;;5084779;28;24449;-55
2021/07/22 08:37:45;;;;;;;8.10;7.37;;;;;;;;;;5069561;28;24383;-55
2021/07/22 08:40:11;;;;;;;8.00;7.40;;;;;;;;;;5069600;28;24386;-53
2021/07/22 08:42:38;;;;;;;9.70;8.90;;;;;;;;;;5068925;28;24421;-54
2021/07/22 08:45:03;;;;;;;8.90;8.20;;;;;;;;;;5069370;28;24849;-54
2021/07/22 08:47:29;;;;;;;8.90;8.10;;;;;;;;;;5087346;28;24433;-54
2021/07/22 08:49:54;;;;;;;9.23;8.43;;;;;;;;;;5089811;28;24737;-56
2021/07/22 08:52:19;;;;;;;9.40;8.60;;;;;;;;;;5089543;28;24413;-54
2021/07/22 08:54:44;;;;;;;10.15;9.35;;;;;;;;;;5089513;28;25015;-54
2021/07/22 08:57:10;;;;;;;9.18;8.38;;;;;;;;;;5087583;28;24429;-54
2021/07/22 08:59:36;;;;;;;9.82;9.02;;;;;;;;;;5089227;28;24395;-55
2021/07/22 09:02:01;;;;;;;8.70;7.90;;;;;;;;;;5089489;28;24434;-54
2021/07/22 09:04:29;;;;;;;10.60;9.60;;;;;;;;;;5089371;28;24394;-55
2021/07/22 09:06:58;;;;;;;10.35;9.55;;;;;;;;;;5088073;28;24415;-55
2021/07/22 09:09:23;;;;;;;9.55;8.75;;;;;;;;;;5089180;28;24394;-55
2021/07/22 09:11:52;;;;;;;10.20;9.40;;;;;;;;;;5089245;28;24390;-55
2021/07/22 09:14:17;;;;;;;10.75;9.85;;;;;;;;;;5088407;28;24739;-55
2021/07/22 09:16:42;;;;;;;10.70;9.90;;;;;;;;;;5089583;28;24429;-55
2021/07/22 09:19:27;;;;;;;11.60;10.70;;;;;;;;;;5086990;28;24431;-54
2021/07/22 09:21:52;;;;;;;11.50;10.50;;;;;;;;;;5088947;28;24429;-55
2021/07/22 09:24:18;;;;;;;11.67;10.57;;;;;;;;;;5088746;28;24393;-55
2021/07/22 09:26:46;;;;;;;12.48;11.40;;;;;;;;;;5088998;28;24976;-55
2021/07/22 09:29:12;;;;;;;11.45;10.48;;;;;;;;;;5089149;28;24393;-55
2021/07/22 09:31:37;;;;;;;12.03;11.03;;;;;;;;;;5087021;28;24437;-55
2021/07/22 09:34:02;;;;;;;12.47;11.37;;;;;;;;;;5089093;28;24810;-54
2021/07/22 09:36:27;;;;;;;15.45;14.02;;;;;;;;;;5088692;28;24416;-54
2021/07/22 09:38:53;;;;;;;12.82;11.73;;;;;;;;;;5088764;28;24409;-55
2021/07/22 09:41:22;;;;;;;13.50;12.30;;;;;;;;;;5086447;28;24461;-55
2021/07/22 09:43:47;;;;;;;11.50;10.50;;;;;;;;;;5088544;28;25028;-54
2021/07/22 09:46:14;;;;;;;11.40;10.40;;;;;;;;;;5088861;28;24503;-55
2021/07/22 09:48:59;;;;;;;11.80;10.80;;;;;;;;;;5088281;28;24520;-55
2021/07/22 09:51:31;;;;;;;12.20;11.10;;;;;;;;;;5086374;28;24425;-55
2021/07/22 09:54:07;;;;;;;11.65;10.65;;;;;;;;;;5087893;28;24419;-55
2021/07/22 09:56:38;;;;;;;12.13;11.13;;;;;;;;;;5088639;28;24412;-55
2021/07/22 09:59:08;;;;;;;15.40;13.90;;;;;;;;;;5088133;28;24864;-55
2021/07/22 10:01:40;;;;;;;12.88;11.82;;;;;;;;;;5072927;28;25014;-54
2021/07/22 10:04:06;;;;;;;12.77;11.68;;;;;;;;;;5067777;28;24442;-55
2021/07/22 10:06:32;;;;;;;13.95;12.80;;;;;;;;;;5067857;28;24427;-55
2021/07/22 10:08:59;;;;;;;14.00;12.80;;;;;;;;;;5068167;28;24394;-55
2021/07/22 10:11:24;;;;;;;14.30;13.05;;;;;;;;;;5075626;28;24781;-54
2021/07/22 10:13:49;;;;;;;11.43;10.53;;;;;;;;;;5087645;28;24393;-55
2021/07/22 10:16:16;;;;;;;13.02;11.93;;;;;;;;;;5088420;28;24439;-55
2021/07/22 10:18:47;;;;;;;13.40;12.30;;;;;;;;;;5087804;28;24441;-55
2021/07/22 10:21:13;;;;;;;13.02;11.93;;;;;;;;;;5088447;28;24422;-55
2021/07/22 10:23:39;;;;;;;13.20;12.10;;;;;;;;;;5077424;28;24468;-56
2021/07/22 10:26:04;;;;;;;13.23;12.15;;;;;;;;;;5065749;28;24448;-55
2021/07/22 10:28:30;;;;;;;13.23;12.23;;;;;;;;;;5067551;28;24460;-55
2021/07/22 10:30:55;;;;;;;12.97;11.87;;;;;;;;;;5067891;28;24406;-55
2021/07/22 10:33:22;;;;;;;14.10;13.00;;;;;;;;;;5067626;28;24418;-54
2021/07/22 10:35:51;;;;;;;14.07;12.98;;;;;;;;;;5073341;28;24422;-55
2021/07/22 10:38:34;;;;;;;14.20;13.10;;;;;;;;;;5087787;28;24756;-55
2021/07/22 10:41:01;;;;;;;14.50;13.30;;;;;;;;;;5087931;28;24409;-55
2021/07/22 10:43:39;;;;;;;14.33;13.13;;;;;;;;;;5087772;28;24389;-55
2021/07/22 10:46:07;;;;;;;14.15;13.05;;;;;;;;;;5088506;28;24503;-55
2021/07/22 10:48:32;;;;;;;13.65;12.55;;;;;;;;;;5087483;28;24433;-55
2021/07/22 10:50:58;;;;;;;14.30;13.10;;;;;;;;;;5084972;28;24975;-56
2021/07/22 10:53:41;;;;;;;14.60;13.40;;;;;;;;;;5085717;28;24425;-54
2021/07/22 10:56:07;;;;;;;14.82;13.63;;;;;;;;;;5087942;28;24482;-55
2021/07/22 10:58:33;;;;;;;14.73;13.43;;;;;;;;;;5080587;28;24445;-54
2021/07/22 11:00:59;;;;;;;16.58;15.18;;;;;;;;;;5084194;28;24859;-54
2021/07/22 11:03:36;;;;;;;16.43;14.93;;;;;;;;;;5088360;28;24502;-54
2021/07/22 11:06:09;;;;;;;15.60;14.30;;;;;;;;;;5098166;28;24464;-55
2021/07/22 11:08:36;;;;;;;14.98;13.77;;;;;;;;;;5065991;28;24476;-54
2021/07/22 11:11:02;;;;;;;14.98;13.77;;;;;;;;;;5071829;28;24410;-54
2021/07/22 11:13:33;;;;;;;14.90;13.70;;;;;;;;;;5090722;28;25130;-54
2021/07/22 11:15:59;;;;;;;15.82;14.57;;;;;;;;;;5094535;28;24414;-55
2021/07/22 11:18:39;;;;;;;16.17;14.87;;;;;;;;;;5085903;28;24436;-54
2021/07/22 11:21:04;;;;;;;15.73;14.45;;;;;;;;;;5085250;28;24426;-54
2021/07/22 11:23:30;;;;;;;16.00;14.60;;;;;;;;;;5087899;28;24848;-54
2021/07/22 11:25:55;;;;;;;14.73;13.50;;;;;;;;;;5088792;28;24483;-54
2021/07/22 11:28:24;;;;;;;15.20;13.90;;;;;;;;;;5101431;28;24475;-54
2021/07/22 11:30:59;;;;;;;14.98;13.77;;;;;;;;;;5098248;27;24402;-54
2021/07/22 11:33:25;;;;;;;14.15;12.95;;;;;;;;;;5089208;28;24448;-55
2021/07/22 11:35:57;;;;;;;14.57;13.37;;;;;;;;;;5093870;28;24572;-55
2021/07/22 11:38:22;;;;;;;15.63;14.32;;;;;;;;;;5106163;28;24407;-55
2021/07/22 11:40:47;;;;;;;14.40;13.23;;;;;;;;;;5092592;28;24978;-54
2021/07/22 11:43:12;;;;;;;15.98;14.68;;;;;;;;;;5092914;28;24990;-54
2021/07/22 11:45:41;;;;;;;15.50;14.30;;;;;;;;;;5092424;28;24467;-55
2021/07/22 11:48:21;;;;;;;15.00;13.80;;;;;;;;;;5093394;27;24987;-55
2021/07/22 11:50:56;;;;;;;15.88;14.48;;;;;;;;;;5100126;28;24513;-55
2021/07/22 11:53:22;;;;;;;16.33;14.82;;;;;;;;;;5098249;28;24509;-55
2021/07/22 11:55:47;;;;;;;15.27;14.07;;;;;;;;;;5089252;28;24847;-55
2021/07/22 11:58:14;;;;;;;16.50;15.10;;;;;;;;;;5086886;28;24467;-55
2021/07/22 12:00:39;;;;;;;14.50;13.40;;;;;;;;;;5085381;28;24522;-54
2021/07/22 12:03:04;;;;;;;15.00;13.80;;;;;;;;;;5087672;28;24505;-55
2021/07/22 12:05:29;;;;;;;14.93;13.73;;;;;;;;;;5088581;28;24765;-56
2021/07/22 12:07:57;;;;;;;14.60;13.40;;;;;;;;;;5093570;28;24407;-55
2021/07/22 12:10:26;;;;;;;16.65;15.23;;;;;;;;;;5092998;28;24773;-55
2021/07/22 12:12:58;;;;;;;15.85;14.60;;;;;;;;;;5094538;28;24990;-54
2021/07/22 12:15:23;;;;;;;16.77;15.40;;;;;;;;;;5093970;28;24414;-56
2021/07/22 12:17:49;;;;;;;16.10;14.80;;;;;;;;;;5105565;28;25114;-54
2021/07/22 12:20:14;;;;;;;14.00;12.90;;;;;;;;;;5093310;28;24867;-54
2021/07/22 12:22:40;;;;;;;14.20;13.10;;;;;;;;;;5069834;28;24429;-55
2021/07/22 12:25:12;;;;;;;15.65;14.45;;;;;;;;;;5069278;28;24387;-54
2021/07/22 12:27:39;;;;;;;14.88;13.68;;;;;;;;;;5069392;28;24403;-54
2021/07/22 12:30:05;;;;;;;15.45;14.15;;;;;;;;;;5071036;28;24423;-54
2021/07/22 12:32:31;;;;;;;14.65;13.45;;;;;;;;;;5090246;28;24382;-54
2021/07/22 12:34:57;;;;;;;14.15;12.95;;;;;;;;;;5090253;28;25013;-55
2021/07/22 12:37:41;;;;;;;16.50;15.10;;;;;;;;;;5090099;28;24417;-54
2021/07/22 12:40:09;;;;;;;16.88;15.27;;;;;;;;;;5089536;28;25184;-54
2021/07/22 12:42:34;;;;;;;15.20;14.00;;;;;;;;;;5087719;28;24465;-54
2021/07/22 12:45:12;;;;;;;16.15;14.85;;;;;;;;;;5090113;28;24395;-54
2021/07/22 12:47:44;;;;;;;15.77;14.37;;;;;;;;;;5089783;28;24475;-54
2021/07/22 12:50:26;;;;;;;15.80;14.50;;;;;;;;;;5089567;28;24455;-55
2021/07/22 12:52:51;;;;;;;16.13;14.82;;;;;;;;;;5089618;28;24402;-55
2021/07/22 12:55:27;;;;;;;15.20;14.00;;;;;;;;;;5087840;28;24822;-55
2021/07/22 12:57:52;;;;;;;14.30;13.10;;;;;;;;;;5089739;28;24409;-55
2021/07/22 13:00:20;;;;;;;16.88;15.48;;;;;;;;;;5089617;28;24765;-55
2021/07/22 13:02:58;;;;;;;15.80;14.40;;;;;;;;;;5089317;28;24475;-55
2021/07/22 13:05:23;;;;;;;17.85;16.35;;;;;;;;;;5087773;28;24481;-55
2021/07/22 13:07:49;;;;;;;15.63;14.23;;;;;;;;;;5089282;28;25013;-55
2021/07/22 13:10:15;;;;;;;16.50;15.20;;;;;;;;;;5089590;28;24822;-55
2021/07/22 13:12:40;;;;;;;15.00;13.80;;;;;;;;;;5089493;28;24459;-55
2021/07/22 13:15:05;;;;;;;14.85;13.65;;;;;;;;;;5089138;28;24460;-55
2021/07/22 13:17:30;;;;;;;14.53;13.43;;;;;;;;;;5087562;28;24749;-55
2021/07/22 13:19:55;;;;;;;16.40;15.00;;;;;;;;;;5088787;28;24490;-55
2021/07/22 13:22:21;;;;;;;16.33;14.93;;;;;;;;;;5076284;28;24448;-55
2021/07/22 13:24:48;;;;;;;17.57;16.07;;;;;;;;;;5069065;28;24402;-55
2021/07/22 13:27:14;;;;;;;15.27;13.98;;;;;;;;;;5068602;28;24407;-55
2021/07/22 13:29:39;;;;;;;14.83;13.73;;;;;;;;;;5068520;28;24476;-55
2021/07/22 13:32:07;;;;;;;14.95;13.68;;;;;;;;;;5073432;28;25003;-56
2021/07/22 13:34:32;;;;;;;14.70;13.50;;;;;;;;;;5068350;28;24529;-55
2021/07/22 13:36:58;;;;;;;16.10;14.70;;;;;;;;;;5074421;28;24493;-55
2021/07/22 13:39:23;;;;;;;15.50;14.20;;;;;;;;;;5088443;28;25041;-54
2021/07/22 13:41:48;;;;;;;14.80;13.60;;;;;;;;;;5086141;28;24897;-54
2021/07/22 13:44:13;;;;;;;14.20;13.00;;;;;;;;;;5088440;28;24467;-55
2021/07/22 13:46:38;;;;;;;16.17;14.77;;;;;;;;;;5083499;28;24813;-55
2021/07/22 13:49:03;;;;;;;17.80;16.20;;;;;;;;;;5068259;28;24449;-54
2021/07/22 13:51:28;;;;;;;15.18;13.98;;;;;;;;;;5067887;28;24410;-54
2021/07/22 13:53:54;;;;;;;15.60;14.40;;;;;;;;;;5084073;28;24406;-54
2021/07/22 13:56:19;;;;;;;16.05;14.60;;;;;;;;;;5088700;28;24390;-55
2021/07/22 13:58:44;;;;;;;14.30;13.20;;;;;;;;;;5088232;28;24406;-55
2021/07/22 14:01:09;;;;;;;15.67;14.37;;;;;;;;;;5088103;28;24448;-55
2021/07/22 14:03:34;;;;;;;17.10;15.67;;;;;;;;;;5069447;28;24415;-55
2021/07/22 14:05:59;;;;;;;15.88;14.57;;;;;;;;;;5077618;28;24411;-55
2021/07/22 14:08:24;;;;;;;16.23;14.83;;;;;;;;;;5067875;28;24473;-55
2021/07/22 14:10:50;;;;;;;16.37;14.97;;;;;;;;;;5067516;28;24749;-55
2021/07/22 14:13:15;;;;;;;14.80;13.60;;;;;;;;;;5067523;28;25102;-55
2021/07/22 14:15:40;;;;;;;16.70;15.30;;;;;;;;;;5085934;28;24951;-54
2021/07/22 14:18:05;;;;;;;15.55;14.25;;;;;;;;;;5075338;28;24435;-56
2021/07/22 14:20:31;;;;;;;14.25;13.15;;;;;;;;;;5067547;28;24402;-56
2021/07/22 14:22:56;;;;;;;16.38;14.90;;;;;;;;;;5084121;28;24975;-54
2021/07/22 14:25:21;;;;;;;16.03;14.63;;;;;;;;;;5088013;28;24436;-55
2021/07/22 14:27:46;;;;;;;15.37;13.93;;;;;;;;;;5086203;28;24497;-55